Time,TemperatureF,DewpointF,PressureIn,WindDirection,WindDirectionDegrees,WindSpeedMPH,WindSpeedGustMPH,Humidity,HourlyPrecipIn,Conditions,Clouds,dailyrainin,SolarRadiationWatts/m^2,SoftwareType,DateUTC
2013-02-09 00:05:00,39.8,28.6,29.96,North,32767,-999.0,0.0,64,0.00,,,0.00,0,Wunderground v.1.15,2013-02-09 05:05:00,
2013-02-09 00:15:00,39.6,28.4,29.96,North,32767,-999.0,0.0,64,0.00,,,0.00,0,Wunderground v.1.15,2013-02-09 05:15:00,
2013-02-09 00:20:00,39.6,28.4,29.95,North,32767,-999.0,0.0,64,0.00,,,0.00,0,Wunderground v.1.15,2013-02-09 05:20:00,
2013-02-09 00:25:00,39.5,28.7,29.95,North,32767,-999.0,0.0,65,0.00,,,0.00,0,Wunderground v.1.15,2013-02-09 05:25:00,
2013-02-09 00:30:00,39.2,28.0,29.95,North,32767,-999.0,0.0,64,0.00,,,0.00,0,Wunderground v.1.15,2013-02-09 05:30:00,
2013-02-09 00:40:00,38.9,27.8,29.95,North,32767,-999.0,0.0,64,0.00,,,0.00,0,Wunderground v.1.15,2013-02-09 05:40:00,
2013-02-09 00:50:00,39.1,27.2,29.95,North,32767,-999.0,0.0,62,0.00,,,0.00,0,Wunderground v.1.15,2013-02-09 05:50:00,
2013-02-09 00:55:00,39.2,27.3,29.95,North,32767,-999.0,0.0,62,0.00,,,0.00,0,Wunderground v.1.15,2013-02-09 05:55:00,
2013-02-09 01:05:00,38.9,27.8,29.95,North,32767,-999.0,0.0,64,0.00,,,0.00,0,Wunderground v.1.15,2013-02-09 06:05:00,
2013-02-09 01:10:00,38.8,27.7,29.95,North,32767,-999.0,0.0,64,0.00,,,0.00,0,Wunderground v.1.15,2013-02-09 06:10:00,
2013-02-09 01:20:00,38.6,27.1,29.96,North,32767,-999.0,0.0,63,0.00,,,0.00,0,Wunderground v.1.15,2013-02-09 06:20:00,
2013-02-09 01:25:00,38.6,27.5,29.96,North,32767,-999.0,0.0,64,0.00,,,0.00,0,Wunderground v.1.15,2013-02-09 06:25:00,
2013-02-09 01:35:00,38.5,27.4,29.96,North,32767,-999.0,0.0,64,0.00,,,0.00,0,Wunderground v.1.15,2013-02-09 06:35:00,
2013-02-09 01:40:00,38.2,27.1,29.96,North,32767,-999.0,0.0,64,0.00,,,0.00,0,Wunderground v.1.15,2013-02-09 06:40:00,
2013-02-09 01:45:00,38.0,27.3,29.96,North,32767,-999.0,0.0,65,0.00,,,0.00,0,Wunderground v.1.15,2013-02-09 06:45:00,
2013-02-09 01:55:00,37.6,27.6,29.96,North,32767,-999.0,0.0,67,0.00,,,0.00,0,Wunderground v.1.15,2013-02-09 06:55:00,
2013-02-09 02:00:00,37.6,27.6,29.96,North,32767,-999.0,0.0,67,0.00,,,0.00,0,Wunderground v.1.15,2013-02-09 07:00:00,
2013-02-09 02:10:00,37.6,27.6,29.96,North,32767,-999.0,0.0,67,0.00,,,0.00,0,Wunderground v.1.15,2013-02-09 07:10:00,
2013-02-09 02:15:00,37.5,27.9,29.96,North,32767,-999.0,0.0,68,0.00,,,0.00,0,Wunderground v.1.15,2013-02-09 07:15:00,
2013-02-09 02:20:00,37.2,28.0,29.96,North,32767,-999.0,0.0,69,0.00,,,0.00,0,Wunderground v.1.15,2013-02-09 07:20:00,
2013-02-09 02:30:00,36.8,27.6,29.96,North,32767,-999.0,0.0,69,0.00,,,0.00,0,Wunderground v.1.15,2013-02-09 07:30:00,
2013-02-09 02:35:00,36.6,27.7,29.96,North,32767,-999.0,0.0,70,0.00,,,0.00,0,Wunderground v.1.15,2013-02-09 07:35:00,
2013-02-09 02:40:00,36.5,28.0,29.96,North,32767,-999.0,0.0,71,0.00,,,0.00,0,Wunderground v.1.15,2013-02-09 07:40:00,
2013-02-09 02:50:00,36.3,27.4,29.96,North,32767,-999.0,0.0,70,0.00,,,0.00,0,Wunderground v.1.15,2013-02-09 07:50:00,
2013-02-09 03:00:00,36.2,27.4,29.96,North,32767,-999.0,0.0,70,0.00,,,0.00,0,Wunderground v.1.15,2013-02-09 08:00:00,
2013-02-09 03:05:00,36.0,27.2,29.96,North,32767,-999.0,0.0,70,0.00,,,0.00,0,Wunderground v.1.15,2013-02-09 08:05:00,
2013-02-09 03:10:00,35.9,27.4,29.96,North,32767,-999.0,0.0,71,0.00,,,0.00,0,Wunderground v.1.15,2013-02-09 08:10:00,
2013-02-09 03:20:00,35.8,27.3,29.96,North,32767,-999.0,0.0,71,0.00,,,0.00,0,Wunderground v.1.15,2013-02-09 08:20:00,
2013-02-09 03:30:00,35.3,26.8,29.96,North,32767,-999.0,0.0,71,0.00,,,0.00,0,Wunderground v.1.15,2013-02-09 08:30:00,
2013-02-09 03:35:00,35.0,26.9,29.97,North,32767,-999.0,0.0,72,0.00,,,0.00,0,Wunderground v.1.15,2013-02-09 08:35:00,
2013-02-09 03:40:00,34.6,26.8,29.97,North,32767,-999.0,0.0,73,0.00,,,0.00,0,Wunderground v.1.15,2013-02-09 08:40:00,
2013-02-09 03:50:00,34.3,26.9,29.97,North,32767,-999.0,0.0,74,0.00,,,0.00,0,Wunderground v.1.15,2013-02-09 08:50:00,
2013-02-09 04:00:00,33.8,26.7,29.97,North,32767,-999.0,0.0,75,0.00,,,0.00,0,Wunderground v.1.15,2013-02-09 09:00:00,
2013-02-09 04:10:00,33.5,26.4,29.98,North,32767,-999.0,0.0,75,0.00,,,0.00,0,Wunderground v.1.15,2013-02-09 09:10:00,
2013-02-09 04:15:00,33.7,26.3,29.98,North,32767,-999.0,0.0,74,0.00,,,0.00,0,Wunderground v.1.15,2013-02-09 09:15:00,
2013-02-09 04:25:00,33.8,26.4,29.98,North,32767,-999.0,0.0,74,0.00,,,0.00,0,Wunderground v.1.15,2013-02-09 09:25:00,
2013-02-09 04:30:00,34.0,25.9,29.98,North,32767,-999.0,0.0,72,0.00,,,0.00,0,Wunderground v.1.15,2013-02-09 09:30:00,
2013-02-09 04:40:00,34.0,25.9,29.99,North,32767,-999.0,0.0,72,0.00,,,0.00,0,Wunderground v.1.15,2013-02-09 09:40:00,
2013-02-09 04:45:00,34.0,26.3,29.99,North,32767,-999.0,0.0,73,0.00,,,0.00,0,Wunderground v.1.15,2013-02-09 09:45:00,
2013-02-09 04:55:00,33.8,25.7,30.01,North,32767,-999.0,0.0,72,0.00,,,0.00,0,Wunderground v.1.15,2013-02-09 09:55:00,
2013-02-09 05:00:00,33.7,26.0,30.01,North,32767,-999.0,0.0,73,0.00,,,0.00,0,Wunderground v.1.15,2013-02-09 10:00:00,
2013-02-09 05:10:00,33.7,26.0,30.01,North,32767,-999.0,0.0,73,0.00,,,0.00,0,Wunderground v.1.15,2013-02-09 10:10:00,
2013-02-09 05:15:00,33.7,25.3,30.01,North,32767,-999.0,0.0,71,0.00,,,0.00,0,Wunderground v.1.15,2013-02-09 10:15:00,
2013-02-09 05:25:00,33.8,25.7,30.02,North,32767,-999.0,0.0,72,0.00,,,0.00,0,Wunderground v.1.15,2013-02-09 10:25:00,
2013-02-09 05:30:00,33.7,25.3,30.02,North,32767,-999.0,0.0,71,0.00,,,0.00,0,Wunderground v.1.15,2013-02-09 10:30:00,
2013-02-09 05:35:00,33.7,25.3,30.03,North,32767,-999.0,0.0,71,0.00,,,0.00,0,Wunderground v.1.15,2013-02-09 10:35:00,
2013-02-09 05:40:00,33.5,25.1,30.03,North,32767,-999.0,0.0,71,0.00,,,0.00,0,Wunderground v.1.15,2013-02-09 10:40:00,
2013-02-09 05:50:00,33.2,25.1,30.04,North,32767,-999.0,0.0,72,0.00,,,0.00,0,Wunderground v.1.15,2013-02-09 10:50:00,
2013-02-09 05:55:00,33.1,25.4,30.04,North,32767,-999.0,0.0,73,0.00,,,0.00,0,Wunderground v.1.15,2013-02-09 10:55:00,
2013-02-09 07:25:00,31.8,24.8,30.09,North,32767,-999.0,0.0,75,0.00,,,0.00,0,Wunderground v.1.15,2013-02-09 12:25:00,
2013-02-09 07:35:00,31.8,24.5,30.10,North,32767,-999.0,0.0,74,0.00,,,0.00,9,Wunderground v.1.15,2013-02-09 12:35:00,
2013-02-09 07:40:00,31.5,24.5,30.10,North,32767,-999.0,0.0,75,0.00,,,0.00,11,Wunderground v.1.15,2013-02-09 12:40:00,
2013-02-09 07:45:00,31.6,24.6,30.10,North,32767,-999.0,0.0,75,0.00,,,0.00,12,Wunderground v.1.15,2013-02-09 12:45:00,
2013-02-09 07:55:00,31.8,24.5,30.12,North,32767,-999.0,0.0,74,0.00,,,0.00,16,Wunderground v.1.15,2013-02-09 12:55:00,
2013-02-09 08:00:00,31.9,24.6,30.12,North,32767,-999.0,0.0,74,0.00,,,0.00,21,Wunderground v.1.15,2013-02-09 13:00:00,
2013-02-09 08:10:00,32.4,25.0,30.12,North,32767,-999.0,0.0,74,0.00,,,0.00,30,Wunderground v.1.15,2013-02-09 13:10:00,
2013-02-09 08:20:00,32.9,25.2,30.13,North,32767,-999.0,0.0,73,0.00,,,0.00,30,Wunderground v.1.15,2013-02-09 13:20:00,
2013-02-09 08:25:00,33.1,25.7,30.13,North,32767,-999.0,0.0,74,0.00,,,0.00,35,Wunderground v.1.15,2013-02-09 13:25:00,
2013-02-09 08:35:00,34.3,24.1,30.14,North,32767,-999.0,0.0,66,0.00,,,0.00,95,Wunderground v.1.15,2013-02-09 13:35:00,
2013-02-09 08:45:00,35.6,24.2,30.14,North,32767,-999.0,0.0,63,0.00,,,0.00,79,Wunderground v.1.15,2013-02-09 13:45:00,
2013-02-09 08:50:00,36.2,24.4,30.14,North,32767,-999.0,0.0,62,0.00,,,0.00,83,Wunderground v.1.15,2013-02-09 13:50:00,
2013-02-09 09:00:00,36.9,24.7,30.14,North,32767,-999.0,0.0,61,0.00,,,0.00,42,Wunderground v.1.15,2013-02-09 14:00:00,
2013-02-09 09:10:00,37.8,24.7,30.14,NNW,333,6.0,6.0,59,0.00,,,0.00,46,Wunderground v.1.15,2013-02-09 14:10:00,
2013-02-09 09:20:00,38.5,23.7,30.15,NNW,339,6.0,6.0,55,0.00,,,0.00,44,Wunderground v.1.15,2013-02-09 14:20:00,
2013-02-09 09:25:00,38.9,23.2,30.15,NW,316,6.0,7.0,53,0.00,,,0.00,195,Wunderground v.1.15,2013-02-09 14:25:00,
2013-02-09 09:35:00,39.3,23.1,30.15,NNW,337,7.0,9.0,52,0.00,,,0.00,121,Wunderground v.1.15,2013-02-09 14:35:00,
2013-02-09 09:45:00,39.6,22.5,30.15,WNW,295,8.0,13.0,50,0.00,,,0.00,158,Wunderground v.1.15,2013-02-09 14:45:00,
2013-02-09 09:55:00,40.2,22.1,30.15,NW,318,6.0,7.0,48,0.00,,,0.00,171,Wunderground v.1.15,2013-02-09 14:55:00,
2013-02-09 10:05:00,40.6,21.4,30.16,NNW,346,6.0,7.0,46,0.00,,,0.00,148,Wunderground v.1.15,2013-02-09 15:05:00,
2013-02-09 10:15:00,41.2,23.0,30.16,WNW,296,4.0,4.0,48,0.00,,,0.00,44,Wunderground v.1.15,2013-02-09 15:15:00,
2013-02-09 10:25:00,41.6,21.8,30.16,NNE,30,6.0,10.0,45,0.00,,,0.00,218,Wunderground v.1.15,2013-02-09 15:25:00,
2013-02-09 10:30:00,41.9,22.1,30.16,North,359,6.0,6.0,45,0.00,,,0.00,280,Wunderground v.1.15,2013-02-09 15:30:00,
2013-02-09 10:40:00,42.5,22.1,30.16,NW,309,5.0,8.0,44,0.00,,,0.00,496,Wunderground v.1.15,2013-02-09 15:40:00,
2013-02-09 10:50:00,43.8,20.4,30.17,North,8,5.0,5.0,39,0.00,,,0.00,370,Wunderground v.1.15,2013-02-09 15:50:00,
2013-02-09 10:55:00,44.2,20.8,30.17,NNW,344,5.0,5.0,39,0.00,,,0.00,46,Wunderground v.1.15,2013-02-09 15:55:00,
2013-02-09 11:00:00,44.5,17.8,30.17,NW,316,5.0,5.0,34,0.00,,,0.00,290,Wunderground v.1.15,2013-02-09 16:00:00,
2013-02-09 11:10:00,45.5,20.1,30.17,North,0,3.0,4.0,36,0.00,,,0.00,472,Wunderground v.1.15,2013-02-09 16:10:00,
2013-02-09 11:15:00,45.7,18.2,30.17,North,4,3.0,7.0,33,0.00,,,0.00,565,Wunderground v.1.15,2013-02-09 16:15:00,
2013-02-09 11:25:00,45.5,20.7,30.17,NNW,329,6.0,7.0,37,0.00,,,0.00,384,Wunderground v.1.15,2013-02-09 16:25:00,
2013-02-09 11:30:00,45.8,19.0,30.17,NNW,335,6.0,6.0,34,0.00,,,0.00,419,Wunderground v.1.15,2013-02-09 16:30:00,
2013-02-09 11:35:00,46.0,19.2,30.17,NW,320,4.0,6.0,34,0.00,,,0.00,443,Wunderground v.1.15,2013-02-09 16:35:00,
2013-02-09 11:45:00,46.4,18.8,30.17,North,0,5.0,7.0,33,0.00,,,0.00,58,Wunderground v.1.15,2013-02-09 16:45:00,
2013-02-09 11:55:00,46.8,16.2,30.17,WNW,299,5.0,6.0,29,0.00,,,0.00,104,Wunderground v.1.15,2013-02-09 16:55:00,
2013-02-09 12:05:00,46.8,19.2,30.17,North,356,4.0,5.0,33,0.00,,,0.00,252,Wunderground v.1.15,2013-02-09 17:05:00,
2013-02-09 12:10:00,47.1,18.7,30.17,NNW,339,3.0,6.0,32,0.00,,,0.00,556,Wunderground v.1.15,2013-02-09 17:10:00,
2013-02-09 12:20:00,47.7,17.7,30.17,NW,322,3.0,6.0,30,0.00,,,0.00,621,Wunderground v.1.15,2013-02-09 17:20:00,
2013-02-09 12:30:00,48.5,16.8,30.17,North,10,4.0,6.0,28,0.00,,,0.00,533,Wunderground v.1.15,2013-02-09 17:30:00,
2013-02-09 12:35:00,48.8,17.1,30.16,NW,309,5.0,6.0,28,0.00,,,0.00,545,Wunderground v.1.15,2013-02-09 17:35:00,
2013-02-09 12:45:00,49.5,17.7,30.16,NNW,333,3.0,7.0,28,0.00,,,0.00,646,Wunderground v.1.15,2013-02-09 17:45:00,
2013-02-09 12:50:00,49.4,17.6,30.16,North,0,5.0,5.0,28,0.00,,,0.00,245,Wunderground v.1.15,2013-02-09 17:50:00,
2013-02-09 13:00:00,49.4,16.8,30.16,NNW,337,4.0,6.0,27,0.00,,,0.00,560,Wunderground v.1.15,2013-02-09 18:00:00,
2013-02-09 13:10:00,49.2,16.6,30.15,North,0,6.0,8.0,27,0.00,,,0.00,509,Wunderground v.1.15,2013-02-09 18:10:00,
2013-02-09 13:15:00,49.2,17.4,30.15,North,356,5.0,8.0,28,0.00,,,0.00,283,Wunderground v.1.15,2013-02-09 18:15:00,
2013-02-09 13:25:00,49.8,17.1,30.15,North,350,4.0,6.0,27,0.00,,,0.00,118,Wunderground v.1.15,2013-02-09 18:25:00,
2013-02-09 13:35:00,50.2,15.7,30.15,North,0,5.0,5.0,25,0.00,,,0.00,209,Wunderground v.1.15,2013-02-09 18:35:00,
2013-02-09 13:40:00,50.5,18.6,30.15,NW,316,4.0,4.0,28,0.00,,,0.00,278,Wunderground v.1.15,2013-02-09 18:40:00,
2013-02-09 13:45:00,50.5,17.7,30.15,NW,311,4.0,6.0,27,0.00,,,0.00,341,Wunderground v.1.15,2013-02-09 18:45:00,
2013-02-09 13:50:00,50.2,16.6,30.15,NNW,332,5.0,5.0,26,0.00,,,0.00,373,Wunderground v.1.15,2013-02-09 18:50:00,
2013-02-09 14:00:00,50.2,15.7,30.15,North,10,4.0,7.0,25,0.00,,,0.00,292,Wunderground v.1.15,2013-02-09 19:00:00,
2013-02-09 14:05:00,50.4,16.8,30.15,North,11,5.0,7.0,26,0.00,,,0.00,83,Wunderground v.1.15,2013-02-09 19:05:00,
2013-02-09 14:15:00,50.2,15.7,30.15,NNW,344,5.0,7.0,25,0.00,,,0.00,60,Wunderground v.1.15,2013-02-09 19:15:00,
2013-02-09 14:20:00,50.4,17.6,30.15,NW,323,5.0,6.0,27,0.00,,,0.00,310,Wunderground v.1.15,2013-02-09 19:20:00,
2013-02-09 14:30:00,50.8,17.1,30.15,North,353,4.0,6.0,26,0.00,,,0.00,51,Wunderground v.1.15,2013-02-09 19:30:00,
2013-02-09 14:35:00,50.8,17.1,30.15,North,0,5.0,7.0,26,0.00,,,0.00,461,Wunderground v.1.15,2013-02-09 19:35:00,
2013-02-09 14:45:00,50.7,17.0,30.15,North,0,4.0,6.0,26,0.00,,,0.00,232,Wunderground v.1.15,2013-02-09 19:45:00,
2013-02-09 14:55:00,51.0,17.3,30.15,NNE,14,5.0,5.0,26,0.00,,,0.00,209,Wunderground v.1.15,2013-02-09 19:55:00,
2013-02-09 15:00:00,50.8,18.0,30.15,NW,316,5.0,5.0,27,0.00,,,0.00,190,Wunderground v.1.15,2013-02-09 20:00:00,
2013-02-09 15:05:00,51.0,19.0,30.15,NNW,329,4.0,5.0,28,0.00,,,0.00,158,Wunderground v.1.15,2013-02-09 20:05:00,
2013-02-09 15:15:00,51.1,16.4,30.15,North,359,4.0,4.0,25,0.00,,,0.00,130,Wunderground v.1.15,2013-02-09 20:15:00,
2013-02-09 15:20:00,51.3,18.4,30.15,WNW,298,2.0,4.0,27,0.00,,,0.00,95,Wunderground v.1.15,2013-02-09 20:20:00,
2013-02-09 15:30:00,51.0,17.3,30.15,North,3,5.0,6.0,26,0.00,,,0.00,99,Wunderground v.1.15,2013-02-09 20:30:00,
2013-02-09 15:40:00,50.8,16.2,30.15,North,352,5.0,8.0,25,0.00,,,0.00,143,Wunderground v.1.15,2013-02-09 20:40:00,
2013-02-09 15:45:00,50.8,17.1,30.15,North,359,5.0,8.0,26,0.00,,,0.00,143,Wunderground v.1.15,2013-02-09 20:45:00,
2013-02-09 15:55:00,51.0,18.1,30.15,NNW,342,2.0,4.0,27,0.00,,,0.00,179,Wunderground v.1.15,2013-02-09 20:55:00,
2013-02-09 16:00:00,51.1,15.5,30.15,NNW,339,2.0,6.0,24,0.00,,,0.00,123,Wunderground v.1.15,2013-02-09 21:00:00,
2013-02-09 16:05:00,51.0,16.4,30.15,NNW,339,6.0,6.0,25,0.00,,,0.00,72,Wunderground v.1.15,2013-02-09 21:05:00,
2013-02-09 16:10:00,51.0,16.4,30.15,NNW,347,4.0,4.0,25,0.00,,,0.00,51,Wunderground v.1.15,2013-02-09 21:10:00,
2013-02-09 16:20:00,50.8,16.2,30.15,North,0,3.0,3.0,25,0.00,,,0.00,51,Wunderground v.1.15,2013-02-09 21:20:00,
2013-02-09 16:30:00,51.0,16.4,30.15,NW,326,2.0,2.0,25,0.00,,,0.00,42,Wunderground v.1.15,2013-02-09 21:30:00,
2013-02-09 16:35:00,51.0,17.3,30.15,North,0,1.0,2.0,26,0.00,,,0.00,49,Wunderground v.1.15,2013-02-09 21:35:00,
2013-02-09 16:45:00,50.7,17.0,30.15,NW,316,1.0,1.0,26,0.00,,,0.00,26,Wunderground v.1.15,2013-02-09 21:45:00,
2013-02-09 16:55:00,50.5,17.7,30.17,North,4,0.0,0.0,27,0.00,,,0.00,19,Wunderground v.1.15,2013-02-09 21:55:00,
2013-02-09 17:00:00,50.2,16.6,30.17,North,32767,-999.0,0.0,26,0.00,,,0.00,25,Wunderground v.1.15,2013-02-09 22:00:00,
2013-02-09 17:05:00,50.2,18.3,30.17,North,32767,-999.0,0.0,28,0.00,,,0.00,30,Wunderground v.1.15,2013-02-09 22:05:00,
2013-02-09 17:10:00,50.1,18.2,30.17,North,32767,-999.0,0.0,28,0.00,,,0.00,18,Wunderground v.1.15,2013-02-09 22:10:00,
2013-02-09 17:20:00,49.5,17.7,30.18,North,1,0.0,0.0,28,0.00,,,0.00,11,Wunderground v.1.15,2013-02-09 22:20:00,
2013-02-09 17:30:00,49.4,17.6,30.18,North,32767,-999.0,0.0,28,0.00,,,0.00,7,Wunderground v.1.15,2013-02-09 22:30:00,
2013-02-09 17:35:00,49.1,17.3,30.18,North,32767,-999.0,0.0,28,0.00,,,0.00,5,Wunderground v.1.15,2013-02-09 22:35:00,
2013-02-09 17:45:00,48.5,16.0,30.18,North,32767,-999.0,0.0,27,0.00,,,0.00,0,Wunderground v.1.15,2013-02-09 22:45:00,
2013-02-09 17:55:00,48.5,16.0,30.18,North,32767,-999.0,0.0,27,0.00,,,0.00,0,Wunderground v.1.15,2013-02-09 22:55:00,
2013-02-09 18:05:00,48.2,16.6,30.18,North,32767,-999.0,0.0,28,0.00,,,0.00,0,Wunderground v.1.15,2013-02-09 23:05:00,
2013-02-09 18:10:00,47.9,17.9,30.18,North,32767,-999.0,0.0,30,0.00,,,0.00,0,Wunderground v.1.15,2013-02-09 23:10:00,
2013-02-09 18:15:00,47.4,15.9,30.18,North,32767,-999.0,0.0,28,0.00,,,0.00,0,Wunderground v.1.15,2013-02-09 23:15:00,
2013-02-09 18:25:00,47.3,15.0,30.18,North,32767,-999.0,0.0,27,0.00,,,0.00,0,Wunderground v.1.15,2013-02-09 23:25:00,
2013-02-09 18:30:00,47.1,15.6,30.18,North,32767,-999.0,0.0,28,0.00,,,0.00,0,Wunderground v.1.15,2013-02-09 23:30:00,
2013-02-09 18:40:00,46.5,16.7,30.18,North,32767,-999.0,0.0,30,0.00,,,0.00,0,Wunderground v.1.15,2013-02-09 23:40:00,
2013-02-09 18:45:00,46.2,14.8,30.18,North,32767,-999.0,0.0,28,0.00,,,0.00,0,Wunderground v.1.15,2013-02-09 23:45:00,
2013-02-09 18:50:00,46.4,15.0,30.19,North,32767,-999.0,0.0,28,0.00,,,0.00,0,Wunderground v.1.15,2013-02-09 23:50:00,
2013-02-09 18:55:00,46.5,15.1,30.19,North,32767,-999.0,0.0,28,0.00,,,0.00,0,Wunderground v.1.15,2013-02-09 23:55:00,
2013-02-09 19:05:00,46.2,15.6,30.19,North,32767,-999.0,0.0,29,0.00,,,0.00,0,Wunderground v.1.15,2013-02-10 00:05:00,
2013-02-09 19:10:00,45.8,15.3,30.19,North,32767,-999.0,0.0,29,0.00,,,0.00,0,Wunderground v.1.15,2013-02-10 00:10:00,
2013-02-09 19:20:00,45.7,15.2,30.20,North,32767,-999.0,0.0,29,0.00,,,0.00,0,Wunderground v.1.15,2013-02-10 00:20:00,
2013-02-09 19:25:00,45.7,16.0,30.20,North,32767,-999.0,0.0,30,0.00,,,0.00,0,Wunderground v.1.15,2013-02-10 00:25:00,
2013-02-09 19:35:00,45.5,15.0,30.21,North,32767,-999.0,0.0,29,0.00,,,0.00,0,Wunderground v.1.15,2013-02-10 00:35:00,
2013-02-09 19:40:00,45.4,14.9,30.21,North,32767,-999.0,0.0,29,0.00,,,0.00,0,Wunderground v.1.15,2013-02-10 00:40:00,
2013-02-09 19:50:00,45.2,16.3,30.21,North,32767,-999.0,0.0,31,0.00,,,0.00,0,Wunderground v.1.15,2013-02-10 00:50:00,
2013-02-09 20:00:00,45.1,16.2,30.21,North,32767,-999.0,0.0,31,0.00,,,0.00,0,Wunderground v.1.15,2013-02-10 01:00:00,
2013-02-09 20:10:00,44.9,16.0,30.21,North,32767,-999.0,0.0,31,0.00,,,0.00,0,Wunderground v.1.15,2013-02-10 01:10:00,
2013-02-09 20:15:00,44.9,16.0,30.21,North,32767,-999.0,0.0,31,0.00,,,0.00,0,Wunderground v.1.15,2013-02-10 01:15:00,
2013-02-09 20:25:00,45.2,15.6,30.22,North,32767,-999.0,0.0,30,0.00,,,0.00,0,Wunderground v.1.15,2013-02-10 01:25:00,
2013-02-09 20:30:00,45.2,15.6,30.22,North,32767,-999.0,0.0,30,0.00,,,0.00,0,Wunderground v.1.15,2013-02-10 01:30:00,
2013-02-09 20:40:00,44.9,15.3,30.22,North,32767,-999.0,0.0,30,0.00,,,0.00,0,Wunderground v.1.15,2013-02-10 01:40:00,
2013-02-09 20:50:00,44.6,15.8,30.22,North,32767,-999.0,0.0,31,0.00,,,0.00,0,Wunderground v.1.15,2013-02-10 01:50:00,
2013-02-09 21:00:00,44.9,15.3,30.22,North,32767,-999.0,0.0,30,0.00,,,0.00,0,Wunderground v.1.15,2013-02-10 02:00:00,
2013-02-09 21:05:00,44.9,15.3,30.23,North,32767,-999.0,0.0,30,0.00,,,0.00,0,Wunderground v.1.15,2013-02-10 02:05:00,
2013-02-09 21:15:00,44.8,16.0,30.23,North,32767,-999.0,0.0,31,0.00,,,0.00,0,Wunderground v.1.15,2013-02-10 02:15:00,
2013-02-09 21:25:00,44.6,15.8,30.23,North,32767,-999.0,0.0,31,0.00,,,0.00,0,Wunderground v.1.15,2013-02-10 02:25:00,
2013-02-09 21:35:00,44.2,16.2,30.23,North,32767,-999.0,0.0,32,0.00,,,0.00,0,Wunderground v.1.15,2013-02-10 02:35:00,
2013-02-09 21:45:00,43.9,15.9,30.23,North,32767,-999.0,0.0,32,0.00,,,0.00,0,Wunderground v.1.15,2013-02-10 02:45:00,
2013-02-09 21:55:00,43.5,16.9,30.24,North,32767,-999.0,0.0,34,0.00,,,0.00,0,Wunderground v.1.15,2013-02-10 02:55:00,
2013-02-09 22:05:00,43.2,18.0,30.24,North,32767,-999.0,0.0,36,0.00,,,0.00,0,Wunderground v.1.15,2013-02-10 03:05:00,
2013-02-09 22:15:00,42.9,17.7,30.24,North,32767,-999.0,0.0,36,0.00,,,0.00,0,Wunderground v.1.15,2013-02-10 03:15:00,
2013-02-09 22:20:00,42.9,17.7,30.24,North,32767,-999.0,0.0,36,0.00,,,0.00,0,Wunderground v.1.15,2013-02-10 03:20:00,
2013-02-09 22:30:00,42.6,19.9,30.24,North,32767,-999.0,0.0,40,0.00,,,0.00,0,Wunderground v.1.15,2013-02-10 03:30:00,
2013-02-09 22:35:00,42.5,18.6,30.24,North,32767,-999.0,0.0,38,0.00,,,0.00,0,Wunderground v.1.15,2013-02-10 03:35:00,
2013-02-09 22:45:00,42.1,19.5,30.24,North,32767,-999.0,0.0,40,0.00,,,0.00,0,Wunderground v.1.15,2013-02-10 03:45:00,
2013-02-09 22:50:00,41.8,18.6,30.24,North,32767,-999.0,0.0,39,0.00,,,0.00,0,Wunderground v.1.15,2013-02-10 03:50:00,
2013-02-09 22:55:00,41.5,18.9,30.24,North,32767,-999.0,0.0,40,0.00,,,0.00,0,Wunderground v.1.15,2013-02-10 03:55:00,
2013-02-09 23:05:00,41.3,19.3,30.25,North,32767,-999.0,0.0,41,0.00,,,0.00,0,Wunderground v.1.15,2013-02-10 04:05:00,
2013-02-09 23:10:00,41.2,18.7,30.25,North,32767,-999.0,0.0,40,0.00,,,0.00,0,Wunderground v.1.15,2013-02-10 04:10:00,
2013-02-09 23:15:00,41.1,18.6,30.25,North,32767,-999.0,0.0,40,0.00,,,0.00,0,Wunderground v.1.15,2013-02-10 04:15:00,
2013-02-09 23:20:00,40.8,17.7,30.25,North,32767,-999.0,0.0,39,0.00,,,0.00,0,Wunderground v.1.15,2013-02-10 04:20:00,
2013-02-09 23:30:00,40.9,17.8,30.25,North,32767,-999.0,0.0,39,0.00,,,0.00,0,Wunderground v.1.15,2013-02-10 04:30:00,
2013-02-09 23:40:00,40.9,17.8,30.24,North,32767,-999.0,0.0,39,0.00,,,0.00,0,Wunderground v.1.15,2013-02-10 04:40:00,
2013-02-09 23:45:00,40.9,17.8,30.24,North,32767,-999.0,0.0,39,0.00,,,0.00,0,Wunderground v.1.15,2013-02-10 04:45:00,
2013-02-09 23:50:00,40.9,17.2,30.24,North,32767,-999.0,0.0,38,0.00,,,0.00,0,Wunderground v.1.15,2013-02-10 04:50:00,